Ambia, Indiana
Current Conditions -  °F | °C
As of 12:15 PM on Thursday 27 Nov 2014 (Local Time) from KDNV Reporting Station
Overcast Overcast  
Wind Chill: -9°   Ceiling: 1400
Heat Index: -3°   Visibility: 10mi
Dew Point: -6°   Wind: 10mph
Humidity: 79%   Direction: 300°WNW
Pressure: 30.34"   Gusts: 18mph
Location:  40.49°N, 87.52°W
Report Text: KDNV 271715Z AUTO 30009G16KT 10SM OVC014 M03/M06 A3034 RMK AO2 T10311062
Loading
Personal Weather Stations






























Interactive Weather Map New forecast layout! Learn more

10-Day Weather Forecast

Advertisements
Track Severe Weather on mobile